LAX weather

Los Angeles International Airport
Los Angeles, California, United States

Public forecast

Using degrees Fahrenheit for public forecast. Weather courtesy of forecast.io.

METAR (pilot weather report)

Retrieved 2017/11/19 15:53 UTC (58 minutes ago):

KLAX 191553Z 00000KT 10SM FEW230 BKN300 16/M05 A3006 RMK AO2 SLP178 T01561050

TAF (pilot weather forecast)

Retrieved 2017/11/19 12:30 UTC (4 hours ago):

TAF KLAX 191127Z 1912/2018 02006KT P6SM SKC FM191600 VRB03KT P6SM SKC FM192000 27010KT P6SM SKC FM200400 VRB03KT P6SM SKC